Tiptree, United Kingdom
Current Conditions -  °F | °C
As of 9:20 PM on Thursday 20 Nov 2014 (Local Time) from EGMC Reporting Station
Scattered Clouds Scattered Clouds  
Wind Chill: 45°   Ceiling: Unl
Heat Index: 48°   Visibility: 5mi
Dew Point: 43°   Wind: 8mph
Humidity: 82%   Direction: 90°E
Pressure: 30.24"   Gusts: NA
Location:  51.81°N, 0.75°E
Report Text: EGMC 202120Z 09007KT 8000 FEW019 SCT028 09/06 Q1024
Loading
Personal Weather Stations






























Interactive Weather Map New forecast layout! Learn more

10-Day Weather Forecast

Advertisements
Track Severe Weather on mobile